Time;durP1;ratioP1;P1;durP2;ratioP2;P2;SDS_P1;SDS_P2;PMS_P1;PMS_P2;Temp;Humidity;BMP_temperature;BMP_pressure;BME280_temperature;BME280_humidity;BME280_pressure;Samples;Min_cycle;Max_cycle;Signal;HPM_P1;HPM_P2
2022/08/07 00:00:56;;;;;;;12.88;4.88;;;28.60;99.90;;;;;;5022035;23;20532;-47
2022/08/07 00:03:23;;;;;;;13.95;5.00;;;28.60;99.90;;;;;;5031350;28;20040;-47
2022/08/07 00:05:51;;;;;;;6.85;4.10;;;28.60;99.90;;;;;;5031312;28;20397;-47
2022/08/07 00:08:18;;;;;;;10.45;4.22;;;28.60;99.90;;;;;;5031317;28;20041;-47
2022/08/07 00:10:44;;;;;;;14.02;4.35;;;28.60;99.90;;;;;;5031556;28;20100;-47
2022/08/07 00:13:10;;;;;;;10.85;4.65;;;28.60;99.90;;;;;;5031398;28;20430;-47
2022/08/07 00:15:36;;;;;;;8.95;4.55;;;28.60;99.90;;;;;;5030874;28;20045;-47
2022/08/07 00:18:03;;;;;;;9.43;4.68;;;28.50;99.90;;;;;;5013116;28;20106;-47
2022/08/07 00:20:28;;;;;;;10.70;5.13;;;28.50;99.90;;;;;;5031173;28;20037;-47
2022/08/07 00:22:54;;;;;;;11.07;4.85;;;28.50;99.90;;;;;;5029960;28;20370;-48
2022/08/07 00:25:20;;;;;;;12.57;4.80;;;28.50;99.90;;;;;;5031256;28;20362;-47
2022/08/07 00:27:46;;;;;;;10.95;5.10;;;28.50;99.90;;;;;;5031285;28;20247;-47
2022/08/07 00:30:12;;;;;;;9.02;4.90;;;28.40;99.90;;;;;;5031427;28;20028;-47
2022/08/07 00:32:38;;;;;;;8.52;4.72;;;28.50;99.90;;;;;;5031121;28;20028;-47
2022/08/07 00:35:04;;;;;;;10.48;5.38;;;28.50;99.90;;;;;;5031193;28;20117;-48
2022/08/07 00:37:29;;;;;;;8.20;5.07;;;28.50;99.90;;;;;;5031056;28;20049;-47
2022/08/07 00:39:55;;;;;;;8.25;4.95;;;28.50;99.90;;;;;;5031008;28;20433;-47
2022/08/07 00:42:21;;;;;;;12.10;4.53;;;28.50;99.90;;;;;;5031046;28;20053;-47
2022/08/07 00:44:47;;;;;;;15.25;5.65;;;28.40;99.90;;;;;;5031042;28;20060;-47
2022/08/07 00:47:13;;;;;;;9.15;4.93;;;28.40;99.90;;;;;;5031129;28;20048;-48
2022/08/07 00:49:39;;;;;;;15.40;5.13;;;28.40;99.90;;;;;;5013498;28;20088;-47
2022/08/07 00:52:05;;;;;;;10.55;4.55;;;28.40;99.90;;;;;;5013386;28;20497;-47
2022/08/07 00:54:32;;;;;;;10.02;5.00;;;28.50;99.90;;;;;;5030847;28;20416;-47
2022/08/07 00:56:57;;;;;;;8.80;4.70;;;28.50;99.90;;;;;;5030854;28;20091;-47
2022/08/07 00:59:23;;;;;;;13.55;5.00;;;28.50;99.90;;;;;;5031228;28;20051;-48
2022/08/07 01:01:49;;;;;;;7.57;4.80;;;28.40;99.90;;;;;;5030692;28;20030;-47
2022/08/07 01:04:16;;;;;;;7.30;4.63;;;28.40;99.90;;;;;;5030958;28;20034;-47
2022/08/07 01:06:44;;;;;;;5.95;4.03;;;28.50;99.90;;;;;;5030685;28;20389;-47
2022/08/07 01:09:10;;;;;;;11.02;4.30;;;28.40;99.90;;;;;;5030613;28;20129;-47
2022/08/07 01:11:37;;;;;;;12.27;4.65;;;28.40;99.90;;;;;;5030878;28;20029;-47
2022/08/07 01:14:03;;;;;;;9.67;4.33;;;28.40;99.90;;;;;;5030804;28;20432;-47
2022/08/07 01:16:30;;;;;;;8.38;4.30;;;28.40;99.90;;;;;;5030888;28;20031;-47
2022/08/07 01:18:56;;;;;;;7.05;3.50;;;28.50;99.90;;;;;;5030799;28;20045;-47
2022/08/07 01:21:25;;;;;;;12.23;4.80;;;28.40;99.90;;;;;;5030629;28;20550;-47
2022/08/07 01:23:53;;;;;;;6.18;4.03;;;28.40;99.90;;;;;;5030684;28;20381;-47
2022/08/07 01:26:21;;;;;;;7.72;4.20;;;28.40;99.90;;;;;;5030907;28;20026;-47
2022/08/07 01:28:49;;;;;;;8.70;4.03;;;28.40;99.90;;;;;;5030756;28;20445;-47
2022/08/07 01:31:16;;;;;;;12.38;4.10;;;28.40;99.90;;;;;;5033864;28;20440;-47
2022/08/07 01:33:42;;;;;;;6.57;3.78;;;28.40;99.90;;;;;;5034369;28;20021;-47
2022/08/07 01:36:10;;;;;;;9.23;3.65;;;28.40;99.90;;;;;;5034253;28;20083;-47
2022/08/07 01:38:38;;;;;;;7.05;3.63;;;28.40;99.90;;;;;;5016567;28;20026;-47
2022/08/07 01:41:08;;;;;;;8.38;3.97;;;28.40;99.90;;;;;;5034161;28;20064;-46
2022/08/07 01:43:35;;;;;;;11.68;4.65;;;28.40;99.90;;;;;;5034135;28;20370;-46
2022/08/07 01:46:01;;;;;;;7.90;4.20;;;28.40;99.90;;;;;;5034024;28;20029;-46
2022/08/07 01:48:27;;;;;;;13.55;4.78;;;28.30;99.90;;;;;;5033953;28;20026;-47
2022/08/07 01:51:02;;;;;;;8.63;5.47;;;28.30;99.90;;;;;;5033874;28;20032;-46
2022/08/07 01:53:31;;;;;;;10.80;3.85;;;28.30;99.90;;;;;;5033753;28;20478;-47
2022/08/07 01:56:13;;;;;;;6.32;3.92;;;28.30;99.90;;;;;;5033836;28;20021;-47
2022/08/07 01:58:44;;;;;;;7.43;4.20;;;28.30;99.90;;;;;;5033774;28;20068;-47
2022/08/07 02:01:18;;;;;;;6.50;3.80;;;28.20;99.90;;;;;;5034057;28;20693;-46
2022/08/07 02:03:50;;;;;;;9.02;3.97;;;28.30;99.90;;;;;;5032514;28;20485;-46
2022/08/07 02:06:18;;;;;;;7.43;4.10;;;28.30;99.90;;;;;;5016213;28;20029;-46
2022/08/07 02:08:46;;;;;;;7.72;3.97;;;28.20;99.90;;;;;;5016069;28;20051;-46
2022/08/07 02:11:12;;;;;;;6.07;4.07;;;28.20;99.90;;;;;;5033510;28;20101;-47
2022/08/07 02:13:41;;;;;;;6.97;4.57;;;28.20;99.90;;;;;;5033647;28;20029;-47
2022/08/07 02:16:09;;;;;;;5.65;4.55;;;28.20;99.90;;;;;;5033476;28;20108;-47
2022/08/07 02:18:37;;;;;;;7.55;4.55;;;28.20;99.90;;;;;;5033334;28;20029;-47
2022/08/07 02:21:06;;;;;;;6.30;4.35;;;28.20;99.90;;;;;;5033364;28;20470;-47
2022/08/07 02:23:36;;;;;;;10.20;4.88;;;28.20;99.90;;;;;;5033291;28;20398;-47
2022/08/07 02:26:04;;;;;;;7.13;4.10;;;28.10;99.90;;;;;;5033247;28;20049;-47
2022/08/07 02:28:32;;;;;;;8.93;4.28;;;28.10;99.90;;;;;;5033102;28;20029;-47
2022/08/07 02:31:01;;;;;;;8.38;4.05;;;28.10;99.90;;;;;;5033364;28;20112;-47
2022/08/07 02:33:28;;;;;;;10.45;4.57;;;28.10;99.90;;;;;;5033128;28;20101;-47
2022/08/07 02:35:55;;;;;;;10.05;4.45;;;28.20;99.90;;;;;;5033225;28;20021;-47
2022/08/07 02:38:26;;;;;;;7.93;5.15;;;28.20;99.90;;;;;;5033282;28;20025;-47
2022/08/07 02:40:54;;;;;;;8.35;4.22;;;28.20;99.90;;;;;;5032699;28;20061;-47
2022/08/07 02:43:20;;;;;;;11.10;4.70;;;28.10;99.90;;;;;;5032659;28;20025;-47
2022/08/07 02:45:48;;;;;;;9.55;5.18;;;28.10;99.90;;;;;;5032950;28;20097;-46
2022/08/07 02:48:14;;;;;;;12.25;6.32;;;28.10;99.90;;;;;;5032873;28;20036;-47
2022/08/07 02:50:43;;;;;;;6.57;4.55;;;28.10;99.90;;;;;;5032731;28;20068;-47
2022/08/07 02:53:21;;;;;;;8.05;4.75;;;28.10;99.90;;;;;;5032607;28;20028;-47
2022/08/07 02:55:49;;;;;;;12.73;4.82;;;28.10;99.90;;;;;;5032784;28;20021;-47
2022/08/07 02:58:19;;;;;;;9.65;4.72;;;28.10;99.90;;;;;;5032704;28;20473;-47
2022/08/07 03:00:49;;;;;;;12.80;5.70;;;28.10;99.90;;;;;;5015481;28;20076;-47
2022/08/07 03:03:16;;;;;;;10.55;6.50;;;28.10;99.90;;;;;;5032499;28;20044;-47
2022/08/07 03:05:43;;;;;;;10.20;5.13;;;28.10;99.90;;;;;;5032735;28;20078;-48
2022/08/07 03:08:11;;;;;;;;;;;28.10;99.90;;;;;;5033116;28;20030;-51
2022/08/07 03:10:38;;;;;;;9.00;4.40;;;28.10;99.90;;;;;;5032568;28;20283;-47
2022/08/07 03:13:06;;;;;;;6.15;4.43;;;28.00;99.90;;;;;;5032542;28;20053;-47
2022/08/07 03:15:32;;;;;;;12.88;5.65;;;28.10;99.90;;;;;;5032415;28;20030;-47
2022/08/07 03:17:59;;;;;;;8.38;4.43;;;28.10;99.90;;;;;;5032264;28;20026;-46
2022/08/07 03:20:25;;;;;;;9.77;4.60;;;28.10;99.90;;;;;;5032624;28;20061;-47
2022/08/07 03:22:53;;;;;;;16.75;5.30;;;28.10;99.90;;;;;;5032155;28;20069;-47
2022/08/07 03:25:20;;;;;;;7.15;4.82;;;28.10;99.90;;;;;;5032211;28;20032;-47
2022/08/07 03:27:47;;;;;;;9.20;4.40;;;28.10;99.90;;;;;;5032078;28;20041;-47
2022/08/07 03:30:13;;;;;;;9.13;5.50;;;28.10;99.90;;;;;;5032069;28;20105;-47
2022/08/07 03:32:42;;;;;;;8.30;4.00;;;28.10;99.90;;;;;;5031972;28;20485;-47
2022/08/07 03:35:22;;;;;;;10.20;4.63;;;28.10;99.90;;;;;;5032152;28;20021;-48
2022/08/07 03:38:00;;;;;;;10.90;4.25;;;28.10;99.90;;;;;;5032047;28;20086;-47
2022/08/07 03:40:27;;;;;;;6.32;3.88;;;28.10;99.90;;;;;;5032114;28;20045;-46
2022/08/07 03:42:54;;;;;;;7.88;5.25;;;28.10;99.90;;;;;;5031844;28;20091;-47
2022/08/07 03:45:21;;;;;;;11.02;4.35;;;28.10;99.90;;;;;;5031769;28;20029;-47
2022/08/07 03:47:48;;;;;;;7.43;5.07;;;28.10;99.90;;;;;;5031745;28;20045;-47
2022/08/07 03:50:16;;;;;;;13.23;5.20;;;28.10;99.90;;;;;;5031661;28;20024;-47
2022/08/07 03:52:43;;;;;;;9.68;6.20;;;28.10;99.90;;;;;;5031487;28;20044;-47
2022/08/07 03:55:10;;;;;;;13.65;5.45;;;28.10;99.90;;;;;;5031969;28;20014;-47
2022/08/07 03:57:36;;;;;;;7.07;4.53;;;28.10;99.90;;;;;;5031789;28;20113;-47
2022/08/07 04:00:04;;;;;;;7.53;4.15;;;28.10;99.90;;;;;;5045182;22;20081;-56
2022/08/07 04:02:30;;;;;;;7.18;4.00;;;28.10;99.90;;;;;;5032156;28;20037;-56
2022/08/07 04:04:56;;;;;;;7.63;4.22;;;28.00;99.90;;;;;;5031687;28;20079;-55
2022/08/07 04:07:22;;;;;;;13.85;5.25;;;28.10;99.90;;;;;;5031606;28;20087;-57
2022/08/07 04:09:49;;;;;;;7.72;4.22;;;28.10;99.90;;;;;;5031424;28;20017;-56
2022/08/07 04:12:15;;;;;;;4.82;3.60;;;28.00;99.90;;;;;;5031298;28;20029;-56
2022/08/07 04:14:42;;;;;;;7.43;4.00;;;28.00;99.90;;;;;;5029973;28;20029;-56
2022/08/07 04:17:07;;;;;;;6.18;4.20;;;28.00;99.90;;;;;;5031200;28;20025;-56
2022/08/07 04:19:34;;;;;;;6.85;3.58;;;28.00;99.90;;;;;;5029931;28;20036;-56
2022/08/07 04:22:00;;;;;;;6.55;4.00;;;28.00;99.90;;;;;;5031384;28;20025;-56
2022/08/07 04:24:27;;;;;;;10.20;4.30;;;28.00;99.90;;;;;;5031400;28;20488;-57
2022/08/07 04:26:53;;;;;;;5.88;3.63;;;28.00;99.90;;;;;;5031314;28;20040;-57
2022/08/07 04:29:19;;;;;;;6.03;4.28;;;28.00;99.90;;;;;;5031168;28;20021;-56
2022/08/07 04:31:45;;;;;;;9.68;3.80;;;28.00;99.90;;;;;;5031152;28;20362;-56
2022/08/07 04:34:11;;;;;;;11.18;4.78;;;28.00;99.90;;;;;;5031260;28;20027;-57
2022/08/07 04:36:39;;;;;;;6.35;3.95;;;28.00;99.90;;;;;;5029799;28;20520;-55
2022/08/07 04:39:05;;;;;;;9.68;4.75;;;27.90;99.90;;;;;;5031272;28;20099;-56
2022/08/07 04:41:31;;;;;;;6.95;4.30;;;28.00;99.90;;;;;;5031132;28;20496;-55
2022/08/07 04:44:00;;;;;;;7.38;3.85;;;28.00;99.90;;;;;;5031056;28;20030;-55
2022/08/07 04:46:46;;;;;;;9.27;4.60;;;27.90;99.90;;;;;;5031090;28;20016;-55
2022/08/07 04:49:24;;;;;;;11.30;4.10;;;27.90;99.90;;;;;;5030932;28;20040;-55
2022/08/07 04:52:04;;;;;;;6.68;4.35;;;27.90;99.90;;;;;;5030904;28;20103;-55
2022/08/07 04:54:42;;;;;;;8.95;4.20;;;28.00;99.90;;;;;;5031081;28;20022;-55
2022/08/07 04:57:21;;;;;;;15.73;4.97;;;28.00;99.90;;;;;;5031103;28;20025;-57
2022/08/07 05:00:04;;;;;;;5.97;4.43;;;28.00;99.90;;;;;;5030720;28;20025;-55
2022/08/07 05:02:57;;;;;;;10.60;4.70;;;28.00;99.90;;;;;;5018058;28;20084;-55
2022/08/07 05:05:39;;;;;;;9.32;4.10;;;27.90;99.90;;;;;;5019614;28;20022;-55
2022/08/07 05:08:24;;;;;;;5.43;3.75;;;27.90;99.90;;;;;;5034470;28;20370;-59
2022/08/07 05:10:58;;;;;;;11.02;4.60;;;28.00;99.90;;;;;;5034529;28;20018;-59
2022/08/07 05:13:35;;;;;;;7.63;4.50;;;28.00;99.90;;;;;;5033291;28;20108;-59
2022/08/07 05:16:05;;;;;;;5.53;3.85;;;28.00;99.90;;;;;;5034518;28;20029;-58
2022/08/07 05:18:50;;;;;;;8.02;3.75;;;27.90;99.90;;;;;;5034456;28;20030;-59
2022/08/07 05:21:19;;;;;;;6.60;3.72;;;27.90;99.90;;;;;;5034113;28;20031;-59
2022/08/07 05:23:54;;;;;;;6.47;3.65;;;27.90;99.90;;;;;;5034186;28;20029;-57
2022/08/07 05:26:23;;;;;;;11.23;4.55;;;27.90;99.90;;;;;;5034248;28;20180;-56
2022/08/07 05:28:52;;;;;;;6.90;4.07;;;27.90;99.90;;;;;;5034037;28;20045;-55
2022/08/07 05:31:24;;;;;;;6.82;4.13;;;27.90;99.90;;;;;;5034011;28;20021;-55
2022/08/07 05:33:51;;;;;;;10.57;5.25;;;27.90;99.90;;;;;;5033935;28;20036;-55
2022/08/07 05:36:19;;;;;;;11.68;5.63;;;27.90;99.90;;;;;;5034111;28;20017;-55
2022/08/07 05:38:45;;;;;;;9.43;4.93;;;27.80;99.90;;;;;;5033936;28;20044;-56
2022/08/07 05:41:12;;;;;;;15.70;5.25;;;27.80;99.90;;;;;;5034013;28;20076;-56
2022/08/07 05:43:39;;;;;;;8.20;3.63;;;27.80;99.90;;;;;;5032745;28;20120;-56
2022/08/07 05:46:06;;;;;;;10.43;4.38;;;27.80;99.90;;;;;;5016238;28;20494;-56
2022/08/07 05:48:32;;;;;;;7.32;3.92;;;27.80;99.90;;;;;;5034133;28;20040;-57
2022/08/07 05:51:00;;;;;;;5.00;3.83;;;27.80;99.90;;;;;;5033591;28;20125;-56
2022/08/07 05:53:26;;;;;;;6.25;4.18;;;27.80;99.90;;;;;;5029041;28;20430;-56
2022/08/07 05:55:54;;;;;;;5.28;3.95;;;27.80;99.90;;;;;;5029536;28;20029;-56
2022/08/07 05:58:21;;;;;;;;;;;27.80;99.90;;;;;;5034388;28;20185;-57
2022/08/07 06:00:48;;;;;;;9.25;3.90;;;27.90;99.90;;;;;;5033491;28;19963;-57
2022/08/07 06:03:15;;;;;;;6.38;4.05;;;27.80;99.90;;;;;;5033322;28;20040;-56
2022/08/07 06:05:42;;;;;;;5.57;4.18;;;27.90;99.90;;;;;;5033599;28;20037;-56
2022/08/07 06:08:08;;;;;;;8.38;3.97;;;27.80;99.90;;;;;;5033228;28;20033;-56
2022/08/07 06:10:36;;;;;;;10.30;4.72;;;27.80;99.90;;;;;;5033586;28;20017;-62
2022/08/07 06:13:02;;;;;;;4.93;4.18;;;27.80;99.90;;;;;;5033412;28;20100;-57
2022/08/07 06:15:29;;;;;;;12.93;4.57;;;27.90;99.90;;;;;;5032998;28;20029;-57
2022/08/07 06:17:55;;;;;;;11.05;4.90;;;27.90;99.90;;;;;;5032143;28;20018;-56
2022/08/07 06:20:24;;;;;;;26.40;6.97;;;27.90;99.90;;;;;;5033449;28;20381;-57
2022/08/07 06:22:52;;;;;;;25.88;6.68;;;27.90;99.90;;;;;;5032946;28;20099;-57
2022/08/07 06:25:18;;;;;;;16.83;5.45;;;27.90;99.90;;;;;;5033011;28;20067;-55
2022/08/07 06:27:44;;;;;;;14.48;5.80;;;27.90;99.90;;;;;;5033115;28;20033;-55
2022/08/07 06:30:10;;;;;;;9.25;4.68;;;27.90;99.90;;;;;;5032879;28;20025;-56
2022/08/07 06:32:36;;;;;;;8.50;4.43;;;27.90;99.90;;;;;;5032861;28;20025;-56
2022/08/07 06:35:03;;;;;;;8.45;4.35;;;27.90;99.90;;;;;;5032975;28;20036;-57
2022/08/07 06:37:28;;;;;;;6.32;3.78;;;27.90;99.90;;;;;;5032838;28;20057;-55
2022/08/07 06:39:54;;;;;;;4.53;3.63;;;27.90;99.90;;;;;;5032726;28;20057;-55
2022/08/07 06:42:25;;;;;;;7.28;3.72;;;27.90;99.90;;;;;;5032799;28;20386;-55
2022/08/07 06:44:52;;;;;;;7.10;4.03;;;27.90;99.90;;;;;;5032714;28;20033;-55
2022/08/07 06:47:18;;;;;;;8.52;3.90;;;27.90;99.90;;;;;;5032667;28;20021;-56
2022/08/07 06:49:44;;;;;;;18.20;5.22;;;27.90;99.90;;;;;;5032702;28;20017;-55
2022/08/07 06:52:14;;;;;;;8.48;4.03;;;27.90;99.90;;;;;;5032615;28;20084;-56
2022/08/07 06:54:40;;;;;;;6.30;3.83;;;28.00;99.90;;;;;;5032615;28;20105;-55
2022/08/07 06:57:08;;;;;;;7.13;3.88;;;27.90;99.90;;;;;;5032598;28;20017;-55
2022/08/07 06:59:41;;;;;;;7.57;3.65;;;27.90;99.90;;;;;;5032365;28;20025;-54
2022/08/07 07:02:14;;;;;;;5.80;3.85;;;28.00;99.90;;;;;;5032348;28;20033;-57
2022/08/07 07:04:42;;;;;;;6.82;4.30;;;28.00;99.90;;;;;;5031386;28;20187;-57
2022/08/07 07:07:07;;;;;;;7.97;4.28;;;28.00;99.90;;;;;;5032438;28;20030;-56
2022/08/07 07:09:33;;;;;;;7.18;3.47;;;28.00;99.90;;;;;;5032013;28;20025;-55
2022/08/07 07:12:13;;;;;;;5.97;3.85;;;28.00;99.90;;;;;;5032243;28;20099;-56
2022/08/07 07:14:56;;;;;;;8.65;4.78;;;28.00;99.90;;;;;;5032076;28;20029;-56
2022/08/07 07:17:53;;;;;;;6.25;3.95;;;28.00;99.90;;;;;;5031981;28;20734;-56
2022/08/07 07:20:32;;;;;;;9.50;3.92;;;28.00;99.90;;;;;;5032156;28;20029;-58
2022/08/07 07:22:59;;;;;;;8.57;4.25;;;28.00;99.90;;;;;;5031688;28;20284;-57
2022/08/07 07:25:26;;;;;;;6.15;4.20;;;28.00;99.90;;;;;;5014318;28;20085;-57
2022/08/07 07:28:01;;;;;;;7.75;4.18;;;28.10;99.90;;;;;;5031630;28;20044;-57
2022/08/07 07:30:31;;;;;;;6.82;4.50;;;28.00;99.90;;;;;;5031638;28;20032;-58
2022/08/07 07:33:00;;;;;;;6.45;4.00;;;28.00;99.90;;;;;;5031923;28;20032;-58
2022/08/07 07:35:26;;;;;;;6.85;4.32;;;28.00;99.90;;;;;;5031647;28;20021;-57
2022/08/07 07:37:53;;;;;;;9.67;4.43;;;28.00;99.90;;;;;;5031418;28;20033;-57
2022/08/07 07:40:21;;;;;;;9.25;4.70;;;28.00;99.90;;;;;;5031669;28;20271;-60
2022/08/07 07:42:50;;;;;;;15.90;6.03;;;28.00;99.90;;;;;;5031486;28;20043;-57
2022/08/07 07:45:20;;;;;;;7.28;4.43;;;28.00;99.90;;;;;;5030570;28;20064;-58
2022/08/07 07:47:48;;;;;;;7.22;4.30;;;28.00;99.90;;;;;;5031672;28;20075;-57
2022/08/07 07:50:16;;;;;;;6.45;4.00;;;28.00;99.90;;;;;;5031732;28;20101;-57
2022/08/07 07:52:44;;;;;;;6.75;4.85;;;28.00;99.90;;;;;;5031868;28;20039;-56
2022/08/07 07:55:12;;;;;;;10.18;5.20;;;28.00;99.90;;;;;;5026754;28;20093;-56
2022/08/07 07:57:39;;;;;;;;;;;28.00;99.90;;;;;;5021914;28;20033;-56
2022/08/07 08:00:06;;;;;;;;;;;28.00;99.90;;;;;;5031493;28;20004;-56
2022/08/07 08:02:36;;;;;;;8.00;5.00;;;28.00;99.90;;;;;;5029865;28;19963;-56
2022/08/07 08:05:05;;;;;;;5.35;4.10;;;28.00;99.90;;;;;;5031141;28;20033;-56
2022/08/07 08:07:32;;;;;;;9.15;4.95;;;28.00;99.90;;;;;;5029491;28;20025;-56
2022/08/07 08:10:00;;;;;;;8.15;5.10;;;28.00;99.90;;;;;;5030999;28;20359;-56
2022/08/07 08:12:26;;;;;;;7.10;5.18;;;28.10;99.90;;;;;;5031175;28;20064;-56
2022/08/07 08:14:52;;;;;;;6.65;4.90;;;28.10;99.90;;;;;;5030690;28;20046;-57
2022/08/07 08:17:19;;;;;;;7.78;5.13;;;28.10;99.90;;;;;;5030766;28;20078;-55
2022/08/07 08:19:46;;;;;;;8.13;5.25;;;28.10;99.90;;;;;;5031114;28;20151;-57
2022/08/07 08:27:45;;;;;;;6.32;4.93;;;28.10;99.90;;;;;;5031430;28;20056;-56
2022/08/07 08:30:13;;;;;;;7.82;4.38;;;28.10;99.90;;;;;;5030911;28;20025;-56
2022/08/07 08:32:52;;;;;;;;;;;28.20;99.90;;;;;;5026628;28;20022;-58
2022/08/07 08:35:23;;;;;;;10.05;6.25;;;28.20;99.90;;;;;;5025216;28;19901;-58
2022/08/07 08:37:50;;;;;;;9.52;6.28;;;28.20;99.90;;;;;;5029674;28;20355;-56
2022/08/07 08:40:27;;;;;;;12.02;5.22;;;28.20;99.90;;;;;;5030147;28;20034;-57
2022/08/07 08:42:57;;;;;;;7.78;4.65;;;28.20;99.90;;;;;;5030663;28;20041;-57
2022/08/07 08:45:52;;;;;;;7.47;4.78;;;28.30;99.90;;;;;;5030816;28;20049;-56
2022/08/07 08:48:50;;;;;;;4.90;4.40;;;28.20;99.90;;;;;;5030902;28;20092;-56
2022/08/07 08:51:28;;;;;;;9.80;5.00;;;28.20;99.90;;;;;;5029609;28;20041;-56
2022/08/07 08:54:24;;;;;;;7.72;5.63;;;28.20;99.90;;;;;;5030459;28;20025;-55
2022/08/07 08:56:52;;;;;;;11.02;4.85;;;28.30;99.90;;;;;;4998955;28;20397;-56
2022/08/07 08:59:26;;;;;;;6.18;4.63;;;28.30;99.90;;;;;;5026344;28;20026;-56
2022/08/07 09:02:28;;;;;;;8.82;4.88;;;28.30;99.90;;;;;;5025650;28;20137;-56
2022/08/07 09:05:11;;;;;;;7.53;5.35;;;28.40;99.90;;;;;;5030650;28;20103;-57
2022/08/07 09:07:45;;;;;;;10.40;4.60;;;28.50;99.90;;;;;;5030558;28;20108;-56
2022/08/07 09:10:18;;;;;;;7.18;5.10;;;28.50;99.90;;;;;;5030302;28;20029;-55
2022/08/07 09:13:13;;;;;;;7.28;4.88;;;28.50;99.90;;;;;;5030429;28;20505;-56
2022/08/07 09:16:18;;;;;;;5.60;4.18;;;28.50;99.90;;;;;;4976515;28;20042;-56
2022/08/07 09:19:11;;;;;;;6.40;4.40;;;28.50;99.90;;;;;;5030473;28;20018;-56
2022/08/07 09:21:55;;;;;;;7.75;4.30;;;28.60;99.90;;;;;;5030228;28;20040;-57
2022/08/07 09:24:47;;;;;;;9.98;5.85;;;28.60;99.90;;;;;;5029126;28;20036;-58
2022/08/07 09:27:40;;;;;;;11.85;5.25;;;28.60;99.90;;;;;;5030294;28;20053;-56
2022/08/07 09:30:08;;;;;;;11.80;5.90;;;28.60;99.90;;;;;;5030273;28;20037;-57
2022/08/07 09:33:01;;;;;;;11.40;5.35;;;28.60;99.90;;;;;;5030105;28;20017;-56
2022/08/07 09:36:14;;;;;;;6.25;5.28;;;28.60;99.90;;;;;;5030402;28;20485;-58
2022/08/07 09:38:59;;;;;;;7.28;5.55;;;28.70;99.90;;;;;;4998111;28;20041;-56
2022/08/07 09:41:39;;;;;;;16.00;5.88;;;28.70;99.90;;;;;;5030077;28;20507;-57
2022/08/07 09:44:57;;;;;;;6.68;5.00;;;28.70;99.90;;;;;;5030305;28;20053;-56
2022/08/07 09:47:54;;;;;;;9.85;6.70;;;28.70;99.90;;;;;;4981145;28;20049;-56
2022/08/07 09:50:57;;;;;;;11.25;10.10;;;28.70;99.90;;;;;;5030318;28;20017;-57
2022/08/07 09:53:26;;;;;;;42.47;30.02;;;28.70;99.90;;;;;;5033718;28;20112;-57
2022/08/07 09:56:13;;;;;;;13.52;11.95;;;28.70;99.90;;;;;;5033672;28;20469;-56
2022/08/07 09:58:59;;;;;;;15.43;11.43;;;28.80;99.90;;;;;;5033940;28;20041;-57
2022/08/07 10:01:56;;;;;;;12.77;9.38;;;28.80;99.90;;;;;;5033281;28;20141;-56
2022/08/07 10:04:50;;;;;;;14.90;8.02;;;28.90;99.90;;;;;;5033385;28;20034;-57
2022/08/07 10:08:03;;;;;;;21.30;17.08;;;28.90;99.90;;;;;;5033595;28;20056;-56
2022/08/07 10:11:06;;;;;;;11.52;7.95;;;28.90;99.90;;;;;;4990920;28;20033;-56
2022/08/07 10:13:55;;;;;;;10.18;6.88;;;28.90;99.90;;;;;;5022802;28;20032;-56
2022/08/07 10:16:32;;;;;;;8.35;6.30;;;28.90;99.90;;;;;;5033030;28;20026;-56
2022/08/07 10:19:32;;;;;;;9.27;8.38;;;28.90;99.90;;;;;;5033342;28;20104;-56
2022/08/07 10:22:21;;;;;;;16.67;14.32;;;28.90;99.90;;;;;;5033032;28;20053;-57
2022/08/07 10:25:01;;;;;;;14.38;10.00;;;28.90;99.90;;;;;;5033173;28;20033;-57
2022/08/07 10:28:04;;;;;;;7.95;4.85;;;29.00;99.90;;;;;;5033111;28;20017;-57
2022/08/07 10:30:53;;;;;;;13.15;6.55;;;29.00;99.90;;;;;;5032923;28;20092;-56
2022/08/07 10:33:28;;;;;;;15.27;11.50;;;29.00;99.90;;;;;;5033264;28;20029;-57
2022/08/07 10:36:30;;;;;;;11.93;7.50;;;29.10;99.90;;;;;;5032796;28;20024;-56
2022/08/07 10:39:45;;;;;;;11.10;6.80;;;29.10;99.90;;;;;;5031399;28;20022;-56
2022/08/07 10:42:32;;;;;;;13.20;7.60;;;29.10;99.90;;;;;;5021864;28;20485;-56
2022/08/07 10:45:22;;;;;;;11.95;6.38;;;29.10;99.90;;;;;;5032590;28;20026;-57
2022/08/07 10:48:17;;;;;;;5.90;4.47;;;29.20;99.90;;;;;;5033193;28;20022;-56
2022/08/07 10:50:51;;;;;;;6.15;4.10;;;29.20;99.90;;;;;;5009569;28;20523;-56
2022/08/07 10:53:33;;;;;;;6.97;4.85;;;29.30;99.90;;;;;;5032602;28;20128;-57
2022/08/07 10:56:08;;;;;;;8.63;4.82;;;29.30;99.90;;;;;;5032740;28;20041;-57
2022/08/07 10:58:46;;;;;;;9.82;5.40;;;29.30;99.90;;;;;;5032547;28;20105;-56
2022/08/07 11:01:30;;;;;;;11.57;9.07;;;29.30;99.90;;;;;;5032160;28;20542;-56
2022/08/07 11:04:08;;;;;;;27.20;19.75;;;29.30;99.90;;;;;;5032023;28;20374;-57
2022/08/07 11:06:55;;;;;;;15.65;11.93;;;29.30;99.90;;;;;;5032293;28;20052;-55
2022/08/07 11:09:46;;;;;;;9.40;5.53;;;29.30;99.90;;;;;;5031888;28;20101;-55
2022/08/07 11:12:36;;;;;;;11.18;8.15;;;29.30;99.90;;;;;;5025122;28;20397;-56
2022/08/07 11:15:20;;;;;;;14.52;11.98;;;29.40;99.90;;;;;;5032203;28;20017;-56
2022/08/07 11:17:57;;;;;;;4.85;4.35;;;29.40;99.90;;;;;;5031953;28;20033;-56
2022/08/07 11:20:25;;;;;;;9.05;4.75;;;29.40;99.90;;;;;;5031945;28;20045;-56
2022/08/07 11:23:21;;;;;;;16.80;9.27;;;29.40;99.90;;;;;;5031553;28;20030;-57
2022/08/07 11:26:00;;;;;;;10.20;6.10;;;29.50;99.90;;;;;;5027210;28;20043;-56
2022/08/07 11:28:57;;;;;;;11.15;5.80;;;29.50;99.90;;;;;;5031808;28;20757;-57
2022/08/07 11:31:46;;;;;;;7.72;4.25;;;29.50;99.90;;;;;;4974340;28;20054;-57
2022/08/07 11:34:30;;;;;;;7.53;4.63;;;29.50;99.90;;;;;;5023407;28;20033;-57
2022/08/07 11:37:15;;;;;;;5.55;4.40;;;29.50;99.90;;;;;;5031617;28;20485;-56
2022/08/07 11:40:03;;;;;;;10.70;5.00;;;29.60;99.90;;;;;;5031592;28;20164;-55
2022/08/07 11:42:41;;;;;;;9.40;5.57;;;29.60;99.90;;;;;;5031502;28;20090;-55
2022/08/07 11:45:06;;;;;;;;;;;29.60;99.90;;;;;;5032042;28;20032;-57
2022/08/07 11:47:47;;;;;;;17.65;11.90;;;29.60;99.90;;;;;;5031422;28;20268;-56
2022/08/07 11:50:35;;;;;;;12.50;7.97;;;29.60;99.90;;;;;;5030112;28;20133;-56
2022/08/07 11:53:29;;;;;;;11.60;5.70;;;29.60;99.90;;;;;;5031287;28;20097;-56
2022/08/07 11:56:09;;;;;;;27.25;22.42;;;29.70;99.90;;;;;;5031266;28;20408;-56
2022/08/07 11:58:53;;;;;;;10.73;7.85;;;29.70;99.90;;;;;;5031128;28;20041;-56
2022/08/07 12:01:25;;;;;;;11.40;8.65;;;29.70;99.90;;;;;;5031217;28;20124;-57
2022/08/07 12:04:24;;;;;;;12.38;6.97;;;29.70;99.90;;;;;;5029943;28;20061;-56
2022/08/07 12:07:00;;;;;;;10.00;6.30;;;29.60;99.90;;;;;;5031306;28;20037;-56
2022/08/07 12:09:41;;;;;;;16.13;13.40;;;29.60;99.90;;;;;;5031035;28;20022;-57
2022/08/07 12:12:17;;;;;;;12.68;9.27;;;29.70;99.90;;;;;;5031173;28;20113;-56
2022/08/07 12:14:48;;;;;;;12.10;8.23;;;29.60;99.90;;;;;;5030108;28;20022;-56
2022/08/07 12:17:19;;;;;;;9.00;5.60;;;29.60;99.90;;;;;;5030828;28;20100;-55
2022/08/07 12:19:59;;;;;;;8.52;5.70;;;29.70;99.90;;;;;;5026460;28;20025;-56
2022/08/07 12:22:40;;;;;;;7.80;4.90;;;29.60;99.90;;;;;;5019154;28;20042;-56
2022/08/07 12:25:51;;;;;;;13.38;6.35;;;29.60;99.90;;;;;;5030685;28;20109;-57
2022/08/07 12:28:27;;;;;;;11.90;5.30;;;29.60;99.90;;;;;;5030994;28;20120;-56
2022/08/07 12:30:58;;;;;;;18.55;11.13;;;29.60;99.90;;;;;;5030792;28;20018;-56
2022/08/07 12:33:27;;;;;;;14.77;8.48;;;29.60;99.90;;;;;;5031069;28;20017;-55
2022/08/07 12:35:55;;;;;;;10.63;6.15;;;29.60;99.90;;;;;;5030977;28;20032;-55
2022/08/07 12:38:23;;;;;;;13.73;7.93;;;29.70;99.90;;;;;;5030856;28;20367;-55
2022/08/07 12:40:50;;;;;;;;;;;29.70;99.90;;;;;;5031280;28;20029;-56
2022/08/07 12:43:19;;;;;;;8.77;5.47;;;29.70;99.90;;;;;;5030501;28;20320;-56
2022/08/07 12:46:00;;;;;;;9.82;5.85;;;29.70;99.90;;;;;;5030828;28;20457;-56
2022/08/07 12:48:43;;;;;;;10.13;7.57;;;29.70;99.90;;;;;;5030844;28;20727;-58
2022/08/07 12:51:15;;;;;;;37.00;30.98;;;29.70;99.90;;;;;;5030859;28;20394;-56
2022/08/07 12:54:04;;;;;;;13.45;8.40;;;29.70;99.90;;;;;;5030505;28;20026;-56
2022/08/07 12:56:41;;;;;;;10.82;5.15;;;29.70;99.90;;;;;;5030212;28;20021;-56
2022/08/07 12:59:10;;;;;;;9.57;5.20;;;29.60;99.90;;;;;;5030601;28;20104;-56
2022/08/07 13:02:36;;;;;;;10.07;5.30;;;29.60;99.90;;;;;;5030337;28;20038;-57
2022/08/07 13:05:05;;;;;;;9.35;5.85;;;29.60;99.90;;;;;;4969484;28;20475;-57
2022/08/07 13:07:42;;;;;;;6.68;5.00;;;29.50;99.90;;;;;;5017787;28;20377;-56
2022/08/07 13:10:31;;;;;;;10.23;7.55;;;29.50;99.90;;;;;;5030313;28;20033;-57
2022/08/07 13:13:15;;;;;;;9.80;6.00;;;29.50;99.90;;;;;;5030684;28;20413;-56
2022/08/07 13:15:59;;;;;;;12.95;6.18;;;29.40;99.90;;;;;;5030360;28;20026;-56
2022/08/07 13:18:45;;;;;;;13.95;5.20;;;29.40;99.90;;;;;;5029316;28;20121;-56
2022/08/07 13:21:17;;;;;;;8.05;6.20;;;29.40;99.90;;;;;;5030678;28;20034;-56
2022/08/07 13:24:06;;;;;;;10.27;8.10;;;29.40;99.90;;;;;;5025613;28;20030;-57